Alvordton, Ohio
Current Conditions -  °F | °C
As of 7:35 AM on Monday 20 Oct 2014 (Local Time) from KUSE Reporting Station
Overcast Overcast  
Wind Chill:   Ceiling: 8000
Heat Index:   Visibility: 10mi
Dew Point:   Wind: 8mph
Humidity: 87%   Direction: 200°SSW
Pressure: 29.88"   Gusts: NA
Location:  41.67°N, 84.44°W
Report Text: KUSE 201135Z AUTO 20007KT 10SM OVC080 09/07 A2988 RMK AO2
Loading
Personal Weather Stations






























Interactive Weather Map
Tropical Storm Tracking
New forecast layout! Learn more

10-Day Weather Forecast

Advertisements
Track Severe Weather on mobile